sensor_id;sensor_type;location;lat;lon;timestamp;P1;durP1;ratioP1;P2;durP2;ratioP2
27893;SDS011;15240;50.812;4.792;2022-08-14T00:00:42;10.63;;;6.13;;
27893;SDS011;15240;50.812;4.792;2022-08-14T00:03:16;8.00;;;6.00;;
27893;SDS011;15240;50.812;4.792;2022-08-14T00:05:44;8.90;;;5.93;;
27893;SDS011;15240;50.812;4.792;2022-08-14T00:08:11;7.83;;;5.40;;
27893;SDS011;15240;50.812;4.792;2022-08-14T00:10:38;6.00;;;5.20;;
27893;SDS011;15240;50.812;4.792;2022-08-14T00:13:06;9.90;;;5.37;;
27893;SDS011;15240;50.812;4.792;2022-08-14T00:15:34;6.43;;;5.83;;
27893;SDS011;15240;50.812;4.792;2022-08-14T00:18:02;7.60;;;5.53;;
27893;SDS011;15240;50.812;4.792;2022-08-14T00:20:29;8.93;;;6.70;;
27893;SDS011;15240;50.812;4.792;2022-08-14T00:22:55;7.07;;;6.30;;
27893;SDS011;15240;50.812;4.792;2022-08-14T00:25:22;10.47;;;5.90;;
27893;SDS011;15240;50.812;4.792;2022-08-14T00:27:50;6.63;;;6.00;;
27893;SDS011;15240;50.812;4.792;2022-08-14T00:30:16;6.40;;;5.80;;
27893;SDS011;15240;50.812;4.792;2022-08-14T00:32:42;6.63;;;6.03;;
27893;SDS011;15240;50.812;4.792;2022-08-14T00:35:09;6.83;;;5.60;;
27893;SDS011;15240;50.812;4.792;2022-08-14T00:37:39;8.67;;;6.87;;
27893;SDS011;15240;50.812;4.792;2022-08-14T00:40:08;7.53;;;6.67;;
27893;SDS011;15240;50.812;4.792;2022-08-14T00:42:35;8.10;;;7.30;;
27893;SDS011;15240;50.812;4.792;2022-08-14T00:45:01;8.17;;;7.37;;
27893;SDS011;15240;50.812;4.792;2022-08-14T00:47:27;7.87;;;7.17;;
27893;SDS011;15240;50.812;4.792;2022-08-14T00:49:55;7.90;;;7.17;;
27893;SDS011;15240;50.812;4.792;2022-08-14T00:52:21;8.53;;;6.67;;
27893;SDS011;15240;50.812;4.792;2022-08-14T00:54:48;8.53;;;7.20;;
27893;SDS011;15240;50.812;4.792;2022-08-14T00:57:22;7.00;;;6.37;;
27893;SDS011;15240;50.812;4.792;2022-08-14T00:59:49;8.30;;;7.50;;
27893;SDS011;15240;50.812;4.792;2022-08-14T01:02:16;8.50;;;7.60;;
27893;SDS011;15240;50.812;4.792;2022-08-14T01:04:44;8.17;;;7.47;;
27893;SDS011;15240;50.812;4.792;2022-08-14T01:07:16;7.97;;;6.73;;
27893;SDS011;15240;50.812;4.792;2022-08-14T01:09:48;7.67;;;5.73;;
27893;SDS011;15240;50.812;4.792;2022-08-14T01:12:15;9.00;;;7.27;;
27893;SDS011;15240;50.812;4.792;2022-08-14T01:14:41;9.37;;;6.80;;
27893;SDS011;15240;50.812;4.792;2022-08-14T01:17:09;10.17;;;7.13;;
27893;SDS011;15240;50.812;4.792;2022-08-14T01:19:35;9.13;;;7.53;;
27893;SDS011;15240;50.812;4.792;2022-08-14T01:22:21;7.27;;;6.57;;
27893;SDS011;15240;50.812;4.792;2022-08-14T01:24:47;7.93;;;6.93;;
27893;SDS011;15240;50.812;4.792;2022-08-14T01:27:16;7.30;;;6.60;;
27893;SDS011;15240;50.812;4.792;2022-08-14T01:29:47;7.43;;;5.73;;
27893;SDS011;15240;50.812;4.792;2022-08-14T01:32:14;7.90;;;7.00;;
27893;SDS011;15240;50.812;4.792;2022-08-14T01:34:43;7.53;;;6.10;;
27893;SDS011;15240;50.812;4.792;2022-08-14T01:37:11;6.47;;;5.87;;
27893;SDS011;15240;50.812;4.792;2022-08-14T01:39:39;7.10;;;5.70;;
27893;SDS011;15240;50.812;4.792;2022-08-14T01:42:05;7.83;;;6.57;;
27893;SDS011;15240;50.812;4.792;2022-08-14T01:44:33;11.13;;;7.97;;
27893;SDS011;15240;50.812;4.792;2022-08-14T01:47:08;10.23;;;8.10;;
27893;SDS011;15240;50.812;4.792;2022-08-14T01:49:38;8.40;;;6.73;;
27893;SDS011;15240;50.812;4.792;2022-08-14T01:52:05;8.83;;;6.77;;
27893;SDS011;15240;50.812;4.792;2022-08-14T01:54:32;9.77;;;8.13;;
27893;SDS011;15240;50.812;4.792;2022-08-14T01:56:58;7.23;;;6.03;;
27893;SDS011;15240;50.812;4.792;2022-08-14T01:59:25;10.07;;;6.73;;
27893;SDS011;15240;50.812;4.792;2022-08-14T02:01:58;7.00;;;6.30;;
27893;SDS011;15240;50.812;4.792;2022-08-14T02:04:31;9.03;;;7.07;;
27893;SDS011;15240;50.812;4.792;2022-08-14T02:06:57;7.30;;;6.37;;
27893;SDS011;15240;50.812;4.792;2022-08-14T02:09:24;7.10;;;6.37;;
27893;SDS011;15240;50.812;4.792;2022-08-14T02:11:50;7.23;;;6.53;;
27893;SDS011;15240;50.812;4.792;2022-08-14T02:14:18;9.17;;;6.87;;
27893;SDS011;15240;50.812;4.792;2022-08-14T02:16:46;7.90;;;7.10;;
27893;SDS011;15240;50.812;4.792;2022-08-14T02:19:24;7.77;;;7.00;;
27893;SDS011;15240;50.812;4.792;2022-08-14T02:21:54;7.47;;;6.50;;
27893;SDS011;15240;50.812;4.792;2022-08-14T02:24:24;7.10;;;6.40;;
27893;SDS011;15240;50.812;4.792;2022-08-14T02:26:51;7.40;;;6.27;;
27893;SDS011;15240;50.812;4.792;2022-08-14T02:29:22;12.70;;;8.27;;
27893;SDS011;15240;50.812;4.792;2022-08-14T02:31:50;9.10;;;7.23;;
27893;SDS011;15240;50.812;4.792;2022-08-14T02:34:29;7.33;;;6.63;;
27893;SDS011;15240;50.812;4.792;2022-08-14T02:36:59;9.03;;;7.40;;
27893;SDS011;15240;50.812;4.792;2022-08-14T02:39:27;8.90;;;7.90;;
27893;SDS011;15240;50.812;4.792;2022-08-14T02:41:53;9.30;;;7.83;;
27893;SDS011;15240;50.812;4.792;2022-08-14T02:44:21;8.53;;;7.63;;
27893;SDS011;15240;50.812;4.792;2022-08-14T02:46:54;7.67;;;6.97;;
27893;SDS011;15240;50.812;4.792;2022-08-14T02:49:27;8.17;;;7.37;;
27893;SDS011;15240;50.812;4.792;2022-08-14T02:51:57;8.57;;;6.97;;
27893;SDS011;15240;50.812;4.792;2022-08-14T02:54:24;8.13;;;6.87;;
27893;SDS011;15240;50.812;4.792;2022-08-14T02:56:52;8.40;;;7.60;;
27893;SDS011;15240;50.812;4.792;2022-08-14T02:59:24;11.07;;;8.83;;
27893;SDS011;15240;50.812;4.792;2022-08-14T03:01:54;13.50;;;9.10;;
27893;SDS011;15240;50.812;4.792;2022-08-14T03:04:27;9.40;;;8.60;;
27893;SDS011;15240;50.812;4.792;2022-08-14T03:06:56;9.03;;;8.13;;
27893;SDS011;15240;50.812;4.792;2022-08-14T03:09:23;10.20;;;9.00;;
27893;SDS011;15240;50.812;4.792;2022-08-14T03:11:57;13.93;;;9.23;;
27893;SDS011;15240;50.812;4.792;2022-08-14T03:14:25;10.73;;;9.40;;
27893;SDS011;15240;50.812;4.792;2022-08-14T03:16:57;10.63;;;9.30;;
27893;SDS011;15240;50.812;4.792;2022-08-14T03:19:26;11.03;;;9.90;;
27893;SDS011;15240;50.812;4.792;2022-08-14T03:22:06;10.80;;;9.50;;
27893;SDS011;15240;50.812;4.792;2022-08-14T03:24:36;12.97;;;11.53;;
27893;SDS011;15240;50.812;4.792;2022-08-14T03:27:02;14.03;;;11.33;;
27893;SDS011;15240;50.812;4.792;2022-08-14T03:29:31;13.33;;;11.83;;
27893;SDS011;15240;50.812;4.792;2022-08-14T03:31:59;13.97;;;11.07;;
27893;SDS011;15240;50.812;4.792;2022-08-14T03:34:25;15.13;;;10.53;;
27893;SDS011;15240;50.812;4.792;2022-08-14T03:37:02;13.50;;;11.13;;
27893;SDS011;15240;50.812;4.792;2022-08-14T03:39:34;10.73;;;9.63;;
27893;SDS011;15240;50.812;4.792;2022-08-14T03:42:00;10.60;;;9.60;;
27893;SDS011;15240;50.812;4.792;2022-08-14T03:44:27;10.77;;;9.77;;
27893;SDS011;15240;50.812;4.792;2022-08-14T03:46:53;11.57;;;10.33;;
27893;SDS011;15240;50.812;4.792;2022-08-14T03:49:20;13.97;;;11.73;;
27893;SDS011;15240;50.812;4.792;2022-08-14T03:51:56;12.30;;;9.10;;
27893;SDS011;15240;50.812;4.792;2022-08-14T03:54:22;15.27;;;11.63;;
27893;SDS011;15240;50.812;4.792;2022-08-14T03:56:48;14.73;;;11.57;;
27893;SDS011;15240;50.812;4.792;2022-08-14T03:59:16;14.13;;;12.67;;
27893;SDS011;15240;50.812;4.792;2022-08-14T04:01:48;13.60;;;12.30;;
27893;SDS011;15240;50.812;4.792;2022-08-14T04:04:17;12.03;;;10.83;;
27893;SDS011;15240;50.812;4.792;2022-08-14T04:06:43;15.93;;;11.83;;
27893;SDS011;15240;50.812;4.792;2022-08-14T04:09:15;15.63;;;14.07;;
27893;SDS011;15240;50.812;4.792;2022-08-14T04:11:48;14.47;;;13.17;;
27893;SDS011;15240;50.812;4.792;2022-08-14T04:14:15;14.20;;;12.73;;
27893;SDS011;15240;50.812;4.792;2022-08-14T04:16:41;14.30;;;12.83;;
27893;SDS011;15240;50.812;4.792;2022-08-14T04:19:12;14.93;;;13.53;;
27893;SDS011;15240;50.812;4.792;2022-08-14T04:21:44;15.57;;;14.00;;
27893;SDS011;15240;50.812;4.792;2022-08-14T04:24:20;19.57;;;14.80;;
27893;SDS011;15240;50.812;4.792;2022-08-14T04:26:48;16.77;;;15.10;;
27893;SDS011;15240;50.812;4.792;2022-08-14T04:29:14;16.30;;;14.80;;
27893;SDS011;15240;50.812;4.792;2022-08-14T04:31:44;16.80;;;15.03;;
27893;SDS011;15240;50.812;4.792;2022-08-14T04:34:17;20.20;;;14.03;;
27893;SDS011;15240;50.812;4.792;2022-08-14T04:36:45;16.87;;;15.17;;
27893;SDS011;15240;50.812;4.792;2022-08-14T04:39:31;17.13;;;13.80;;
27893;SDS011;15240;50.812;4.792;2022-08-14T04:42:19;14.63;;;12.73;;
27893;SDS011;15240;50.812;4.792;2022-08-14T04:45:04;13.33;;;11.93;;
27893;SDS011;15240;50.812;4.792;2022-08-14T04:47:33;13.37;;;11.97;;
27893;SDS011;15240;50.812;4.792;2022-08-14T04:50:18;12.73;;;11.40;;
27893;SDS011;15240;50.812;4.792;2022-08-14T04:52:46;12.93;;;11.53;;
27893;SDS011;15240;50.812;4.792;2022-08-14T04:55:14;13.33;;;11.90;;
27893;SDS011;15240;50.812;4.792;2022-08-14T04:57:41;12.77;;;11.57;;
27893;SDS011;15240;50.812;4.792;2022-08-14T05:00:25;12.97;;;10.73;;
27893;SDS011;15240;50.812;4.792;2022-08-14T05:03:04;11.20;;;10.00;;
27893;SDS011;15240;50.812;4.792;2022-08-14T05:05:32;11.03;;;9.67;;
27893;SDS011;15240;50.812;4.792;2022-08-14T05:08:08;11.57;;;10.47;;
27893;SDS011;15240;50.812;4.792;2022-08-14T05:10:37;10.77;;;9.67;;
27893;SDS011;15240;50.812;4.792;2022-08-14T05:13:15;9.90;;;9.00;;
27893;SDS011;15240;50.812;4.792;2022-08-14T05:15:43;10.87;;;9.87;;
27893;SDS011;15240;50.812;4.792;2022-08-14T05:18:19;10.90;;;9.80;;
27893;SDS011;15240;50.812;4.792;2022-08-14T05:20:50;14.87;;;10.17;;
27893;SDS011;15240;50.812;4.792;2022-08-14T05:23:19;10.83;;;8.30;;
27893;SDS011;15240;50.812;4.792;2022-08-14T05:25:50;11.27;;;9.80;;
27893;SDS011;15240;50.812;4.792;2022-08-14T05:28:22;10.80;;;9.70;;
27893;SDS011;15240;50.812;4.792;2022-08-14T05:30:54;11.57;;;10.37;;
27893;SDS011;15240;50.812;4.792;2022-08-14T05:33:23;12.63;;;11.47;;
27893;SDS011;15240;50.812;4.792;2022-08-14T05:35:50;11.80;;;10.63;;
27893;SDS011;15240;50.812;4.792;2022-08-14T05:38:23;13.20;;;11.07;;
27893;SDS011;15240;50.812;4.792;2022-08-14T05:40:50;11.73;;;10.30;;
27893;SDS011;15240;50.812;4.792;2022-08-14T05:43:21;12.33;;;10.97;;
27893;SDS011;15240;50.812;4.792;2022-08-14T05:45:50;12.67;;;10.93;;
27893;SDS011;15240;50.812;4.792;2022-08-14T05:48:21;12.70;;;9.70;;
27893;SDS011;15240;50.812;4.792;2022-08-14T05:50:54;12.43;;;10.43;;
27893;SDS011;15240;50.812;4.792;2022-08-14T05:53:48;13.00;;;9.97;;
27893;SDS011;15240;50.812;4.792;2022-08-14T05:56:18;10.17;;;9.23;;
27893;SDS011;15240;50.812;4.792;2022-08-14T05:58:44;16.00;;;9.73;;
27893;SDS011;15240;50.812;4.792;2022-08-14T06:01:16;9.07;;;8.23;;
27893;SDS011;15240;50.812;4.792;2022-08-14T06:03:42;10.67;;;9.03;;
27893;SDS011;15240;50.812;4.792;2022-08-14T06:06:12;10.17;;;9.07;;
27893;SDS011;15240;50.812;4.792;2022-08-14T06:08:44;10.17;;;7.80;;
27893;SDS011;15240;50.812;4.792;2022-08-14T06:11:13;8.70;;;7.03;;
27893;SDS011;15240;50.812;4.792;2022-08-14T06:14:02;9.60;;;7.30;;
27893;SDS011;15240;50.812;4.792;2022-08-14T06:16:29;8.10;;;7.00;;
27893;SDS011;15240;50.812;4.792;2022-08-14T06:18:56;6.70;;;6.00;;
27893;SDS011;15240;50.812;4.792;2022-08-14T06:21:42;6.43;;;5.82;;
27893;SDS011;15240;50.812;4.792;2022-08-14T06:24:08;5.55;;;5.05;;
27893;SDS011;15240;50.812;4.792;2022-08-14T06:26:35;7.32;;;4.88;;
27893;SDS011;15240;50.812;4.792;2022-08-14T06:29:01;8.18;;;4.90;;
27893;SDS011;15240;50.812;4.792;2022-08-14T06:31:27;5.80;;;5.20;;
27893;SDS011;15240;50.812;4.792;2022-08-14T06:33:53;6.32;;;4.75;;
27893;SDS011;15240;50.812;4.792;2022-08-14T06:36:23;8.48;;;4.75;;
27893;SDS011;15240;50.812;4.792;2022-08-14T06:38:52;5.20;;;4.70;;
27893;SDS011;15240;50.812;4.792;2022-08-14T06:41:18;5.80;;;4.50;;
27893;SDS011;15240;50.812;4.792;2022-08-14T06:43:47;5.95;;;4.78;;
27893;SDS011;15240;50.812;4.792;2022-08-14T06:46:15;5.57;;;4.50;;
27893;SDS011;15240;50.812;4.792;2022-08-14T06:48:41;6.57;;;4.47;;
27893;SDS011;15240;50.812;4.792;2022-08-14T06:51:07;4.60;;;4.15;;
27893;SDS011;15240;50.812;4.792;2022-08-14T06:53:34;7.05;;;4.22;;
27893;SDS011;15240;50.812;4.792;2022-08-14T06:56:00;5.68;;;4.18;;
27893;SDS011;15240;50.812;4.792;2022-08-14T06:58:28;4.88;;;4.35;;
27893;SDS011;15240;50.812;4.792;2022-08-14T07:00:58;5.70;;;4.50;;
27893;SDS011;15240;50.812;4.792;2022-08-14T07:03:43;4.88;;;4.47;;
27893;SDS011;15240;50.812;4.792;2022-08-14T07:06:27;5.20;;;4.40;;
27893;SDS011;15240;50.812;4.792;2022-08-14T07:08:59;4.95;;;4.40;;
27893;SDS011;15240;50.812;4.792;2022-08-14T07:11:25;4.78;;;4.38;;
27893;SDS011;15240;50.812;4.792;2022-08-14T07:13:51;5.88;;;4.25;;
27893;SDS011;15240;50.812;4.792;2022-08-14T07:16:38;9.05;;;4.40;;
27893;SDS011;15240;50.812;4.792;2022-08-14T07:19:11;6.72;;;4.15;;
27893;SDS011;15240;50.812;4.792;2022-08-14T07:21:37;5.50;;;5.00;;
27893;SDS011;15240;50.812;4.792;2022-08-14T07:24:03;5.05;;;4.22;;
27893;SDS011;15240;50.812;4.792;2022-08-14T07:26:42;7.80;;;4.32;;
27893;SDS011;15240;50.812;4.792;2022-08-14T07:29:15;6.32;;;4.10;;
27893;SDS011;15240;50.812;4.792;2022-08-14T07:31:49;5.53;;;4.10;;
27893;SDS011;15240;50.812;4.792;2022-08-14T07:34:15;4.80;;;4.32;;
27893;SDS011;15240;50.812;4.792;2022-08-14T07:36:44;4.32;;;3.92;;
27893;SDS011;15240;50.812;4.792;2022-08-14T07:39:10;4.82;;;4.10;;
27893;SDS011;15240;50.812;4.792;2022-08-14T07:41:43;5.22;;;3.95;;
27893;SDS011;15240;50.812;4.792;2022-08-14T07:44:15;6.95;;;4.40;;
27893;SDS011;15240;50.812;4.792;2022-08-14T07:46:42;4.53;;;3.85;;
27893;SDS011;15240;50.812;4.792;2022-08-14T07:49:13;4.50;;;4.10;;
27893;SDS011;15240;50.812;4.792;2022-08-14T07:51:42;5.82;;;4.10;;
27893;SDS011;15240;50.812;4.792;2022-08-14T07:54:11;4.40;;;4.00;;
27893;SDS011;15240;50.812;4.792;2022-08-14T07:56:54;4.00;;;3.70;;
27893;SDS011;15240;50.812;4.792;2022-08-14T07:59:30;7.32;;;4.00;;
27893;SDS011;15240;50.812;4.792;2022-08-14T08:01:59;3.83;;;3.53;;
27893;SDS011;15240;50.812;4.792;2022-08-14T08:04:25;5.20;;;4.03;;
27893;SDS011;15240;50.812;4.792;2022-08-14T08:06:58;4.80;;;3.88;;
27893;SDS011;15240;50.812;4.792;2022-08-14T08:09:43;7.20;;;3.75;;
27893;SDS011;15240;50.812;4.792;2022-08-14T08:12:12;5.80;;;4.05;;
27893;SDS011;15240;50.812;4.792;2022-08-14T08:14:40;5.50;;;3.80;;
27893;SDS011;15240;50.812;4.792;2022-08-14T08:17:14;4.00;;;3.60;;
27893;SDS011;15240;50.812;4.792;2022-08-14T08:22:43;4.57;;;4.18;;
27893;SDS011;15240;50.812;4.792;2022-08-14T08:25:19;4.35;;;3.95;;
27893;SDS011;15240;50.812;4.792;2022-08-14T08:27:56;5.32;;;3.88;;
27893;SDS011;15240;50.812;4.792;2022-08-14T08:30:37;4.10;;;3.70;;
27893;SDS011;15240;50.812;4.792;2022-08-14T08:33:06;4.15;;;3.75;;
27893;SDS011;15240;50.812;4.792;2022-08-14T08:35:39;5.25;;;3.95;;
27893;SDS011;15240;50.812;4.792;2022-08-14T08:38:30;5.47;;;4.30;;
27893;SDS011;15240;50.812;4.792;2022-08-14T08:41:26;5.35;;;4.00;;
27893;SDS011;15240;50.812;4.792;2022-08-14T08:44:16;7.50;;;4.07;;
27893;SDS011;15240;50.812;4.792;2022-08-14T08:46:56;4.50;;;3.97;;
27893;SDS011;15240;50.812;4.792;2022-08-14T08:52:17;5.28;;;4.00;;
27893;SDS011;15240;50.812;4.792;2022-08-14T08:54:55;4.22;;;3.63;;
27893;SDS011;15240;50.812;4.792;2022-08-14T09:00:38;5.65;;;3.97;;
27893;SDS011;15240;50.812;4.792;2022-08-14T09:03:22;5.68;;;3.72;;
27893;SDS011;15240;50.812;4.792;2022-08-14T09:05:56;4.13;;;3.45;;
27893;SDS011;15240;50.812;4.792;2022-08-14T09:08:32;4.82;;;3.22;;
27893;SDS011;15240;50.812;4.792;2022-08-14T09:11:04;4.25;;;3.05;;
27893;SDS011;15240;50.812;4.792;2022-08-14T09:13:42;4.20;;;3.20;;
27893;SDS011;15240;50.812;4.792;2022-08-14T09:16:41;3.92;;;2.80;;
27893;SDS011;15240;50.812;4.792;2022-08-14T09:19:13;3.60;;;3.00;;
27893;SDS011;15240;50.812;4.792;2022-08-14T09:21:46;3.20;;;2.90;;
27893;SDS011;15240;50.812;4.792;2022-08-14T09:24:37;3.58;;;3.10;;
27893;SDS011;15240;50.812;4.792;2022-08-14T09:27:18;3.63;;;3.08;;
27893;SDS011;15240;50.812;4.792;2022-08-14T09:29:45;3.25;;;2.75;;
27893;SDS011;15240;50.812;4.792;2022-08-14T09:32:27;3.78;;;2.67;;
27893;SDS011;15240;50.812;4.792;2022-08-14T09:37:44;2.83;;;2.30;;
27893;SDS011;15240;50.812;4.792;2022-08-14T09:45:48;4.03;;;2.10;;
27893;SDS011;15240;50.812;4.792;2022-08-14T09:48:37;3.63;;;2.00;;
27893;SDS011;15240;50.812;4.792;2022-08-14T09:51:25;5.00;;;2.30;;
27893;SDS011;15240;50.812;4.792;2022-08-14T09:57:07;4.53;;;1.90;;
27893;SDS011;15240;50.812;4.792;2022-08-14T09:59:43;3.10;;;1.75;;
27893;SDS011;15240;50.812;4.792;2022-08-14T10:05:09;2.95;;;1.80;;
27893;SDS011;15240;50.812;4.792;2022-08-14T10:07:54;4.78;;;1.90;;
27893;SDS011;15240;50.812;4.792;2022-08-14T10:10:40;3.38;;;1.80;;
27893;SDS011;15240;50.812;4.792;2022-08-14T10:13:22;3.50;;;1.67;;
27893;SDS011;15240;50.812;4.792;2022-08-14T10:16:03;2.45;;;1.73;;
27893;SDS011;15240;50.812;4.792;2022-08-14T10:18:40;4.38;;;1.85;;
27893;SDS011;15240;50.812;4.792;2022-08-14T10:21:16;5.18;;;2.00;;
27893;SDS011;15240;50.812;4.792;2022-08-14T10:23:46;2.22;;;2.00;;
27893;SDS011;15240;50.812;4.792;2022-08-14T10:26:41;2.17;;;1.92;;
27893;SDS011;15240;50.812;4.792;2022-08-14T10:29:28;2.45;;;1.70;;
27893;SDS011;15240;50.812;4.792;2022-08-14T10:32:08;3.53;;;1.80;;
27893;SDS011;15240;50.812;4.792;2022-08-14T10:37:44;3.30;;;1.80;;
27893;SDS011;15240;50.812;4.792;2022-08-14T10:40:23;4.75;;;2.00;;
27893;SDS011;15240;50.812;4.792;2022-08-14T10:43:18;4.45;;;1.92;;
27893;SDS011;15240;50.812;4.792;2022-08-14T10:46:01;3.15;;;2.10;;
27893;SDS011;15240;50.812;4.792;2022-08-14T10:48:34;2.58;;;1.80;;
27893;SDS011;15240;50.812;4.792;2022-08-14T10:51:03;4.28;;;1.90;;
27893;SDS011;15240;50.812;4.792;2022-08-14T10:53:53;2.80;;;1.80;;
27893;SDS011;15240;50.812;4.792;2022-08-14T10:56:30;2.30;;;1.92;;
27893;SDS011;15240;50.812;4.792;2022-08-14T11:05:24;2.78;;;1.98;;
27893;SDS011;15240;50.812;4.792;2022-08-14T11:07:55;3.65;;;2.10;;
27893;SDS011;15240;50.812;4.792;2022-08-14T11:10:26;2.40;;;2.20;;
27893;SDS011;15240;50.812;4.792;2022-08-14T11:13:42;3.17;;;1.88;;
27893;SDS011;15240;50.812;4.792;2022-08-14T11:16:11;3.10;;;1.95;;
27893;SDS011;15240;50.812;4.792;2022-08-14T11:18:40;4.22;;;2.00;;
27893;SDS011;15240;50.812;4.792;2022-08-14T11:21:28;3.53;;;1.70;;
27893;SDS011;15240;50.812;4.792;2022-08-14T11:24:04;2.95;;;2.00;;
27893;SDS011;15240;50.812;4.792;2022-08-14T11:26:48;2.53;;;1.70;;
27893;SDS011;15240;50.812;4.792;2022-08-14T11:29:26;3.88;;;1.60;;
27893;SDS011;15240;50.812;4.792;2022-08-14T11:32:00;3.95;;;1.85;;
27893;SDS011;15240;50.812;4.792;2022-08-14T11:34:30;2.08;;;1.88;;
27893;SDS011;15240;50.812;4.792;2022-08-14T11:37:15;2.28;;;1.92;;
27893;SDS011;15240;50.812;4.792;2022-08-14T11:39:44;3.53;;;1.95;;
27893;SDS011;15240;50.812;4.792;2022-08-14T11:42:22;3.00;;;1.92;;
27893;SDS011;15240;50.812;4.792;2022-08-14T11:44:52;2.53;;;1.95;;
27893;SDS011;15240;50.812;4.792;2022-08-14T11:47:26;3.88;;;1.98;;
27893;SDS011;15240;50.812;4.792;2022-08-14T11:49:59;2.42;;;1.90;;
27893;SDS011;15240;50.812;4.792;2022-08-14T11:55:33;2.60;;;2.03;;
27893;SDS011;15240;50.812;4.792;2022-08-14T11:58:09;3.35;;;2.00;;
27893;SDS011;15240;50.812;4.792;2022-08-14T12:00:46;3.92;;;2.00;;
27893;SDS011;15240;50.812;4.792;2022-08-14T12:03:17;3.05;;;2.10;;
27893;SDS011;15240;50.812;4.792;2022-08-14T12:05:47;5.90;;;2.20;;
27893;SDS011;15240;50.812;4.792;2022-08-14T12:08:14;2.67;;;2.20;;
27893;SDS011;15240;50.812;4.792;2022-08-14T12:10:43;3.63;;;2.08;;
27893;SDS011;15240;50.812;4.792;2022-08-14T12:13:22;5.32;;;2.20;;
27893;SDS011;15240;50.812;4.792;2022-08-14T12:15:59;2.65;;;2.00;;
27893;SDS011;15240;50.812;4.792;2022-08-14T12:18:35;4.20;;;2.40;;
27893;SDS011;15240;50.812;4.792;2022-08-14T12:21:15;3.17;;;1.85;;
27893;SDS011;15240;50.812;4.792;2022-08-14T12:23:45;5.13;;;2.10;;
27893;SDS011;15240;50.812;4.792;2022-08-14T12:26:21;4.68;;;2.13;;
27893;SDS011;15240;50.812;4.792;2022-08-14T12:29:01;3.20;;;1.95;;
27893;SDS011;15240;50.812;4.792;2022-08-14T12:31:33;2.58;;;2.05;;
27893;SDS011;15240;50.812;4.792;2022-08-14T12:34:06;5.18;;;2.25;;
27893;SDS011;15240;50.812;4.792;2022-08-14T12:36:33;2.70;;;1.98;;
27893;SDS011;15240;50.812;4.792;2022-08-14T12:39:03;3.17;;;2.33;;
27893;SDS011;15240;50.812;4.792;2022-08-14T12:41:34;3.20;;;2.30;;
27893;SDS011;15240;50.812;4.792;2022-08-14T12:44:06;2.80;;;2.40;;
27893;SDS011;15240;50.812;4.792;2022-08-14T12:46:36;3.08;;;2.53;;
27893;SDS011;15240;50.812;4.792;2022-08-14T12:49:14;3.60;;;2.50;;
27893;SDS011;15240;50.812;4.792;2022-08-14T12:51:59;2.90;;;2.50;;
27893;SDS011;15240;50.812;4.792;2022-08-14T12:54:34;3.33;;;2.30;;
27893;SDS011;15240;50.812;4.792;2022-08-14T12:57:11;4.63;;;2.33;;
27893;SDS011;15240;50.812;4.792;2022-08-14T12:59:43;3.92;;;2.40;;
27893;SDS011;15240;50.812;4.792;2022-08-14T13:02:20;4.32;;;2.40;;
27893;SDS011;15240;50.812;4.792;2022-08-14T13:04:54;2.25;;;2.00;;
27893;SDS011;15240;50.812;4.792;2022-08-14T13:07:26;4.60;;;2.00;;
27893;SDS011;15240;50.812;4.792;2022-08-14T13:10:03;3.35;;;2.17;;
27893;SDS011;15240;50.812;4.792;2022-08-14T13:12:37;3.25;;;2.17;;
27893;SDS011;15240;50.812;4.792;2022-08-14T13:15:21;3.72;;;2.30;;
27893;SDS011;15240;50.812;4.792;2022-08-14T13:17:48;3.33;;;2.20;;
27893;SDS011;15240;50.812;4.792;2022-08-14T13:20:22;2.75;;;2.50;;
27893;SDS011;15240;50.812;4.792;2022-08-14T13:22:53;2.55;;;2.28;;
27893;SDS011;15240;50.812;4.792;2022-08-14T13:25:20;4.22;;;2.55;;
27893;SDS011;15240;50.812;4.792;2022-08-14T13:27:56;3.35;;;2.40;;
27893;SDS011;15240;50.812;4.792;2022-08-14T13:30:25;3.63;;;2.33;;
27893;SDS011;15240;50.812;4.792;2022-08-14T13:32:52;2.20;;;2.00;;
27893;SDS011;15240;50.812;4.792;2022-08-14T13:35:24;2.70;;;2.30;;
27893;SDS011;15240;50.812;4.792;2022-08-14T13:37:51;5.07;;;2.20;;
27893;SDS011;15240;50.812;4.792;2022-08-14T13:40:28;2.40;;;2.20;;
27893;SDS011;15240;50.812;4.792;2022-08-14T13:42:56;3.78;;;2.28;;
27893;SDS011;15240;50.812;4.792;2022-08-14T13:45:35;5.63;;;2.50;;
27893;SDS011;15240;50.812;4.792;2022-08-14T13:48:06;4.85;;;2.60;;
27893;SDS011;15240;50.812;4.792;2022-08-14T13:50:35;2.90;;;2.30;;
27893;SDS011;15240;50.812;4.792;2022-08-14T13:53:05;3.65;;;2.40;;
27893;SDS011;15240;50.812;4.792;2022-08-14T13:55:39;3.63;;;2.22;;
27893;SDS011;15240;50.812;4.792;2022-08-14T13:58:28;3.22;;;2.38;;
27893;SDS011;15240;50.812;4.792;2022-08-14T14:00:57;3.65;;;2.30;;
27893;SDS011;15240;50.812;4.792;2022-08-14T14:03:33;3.95;;;2.55;;
27893;SDS011;15240;50.812;4.792;2022-08-14T14:06:04;3.45;;;2.30;;
27893;SDS011;15240;50.812;4.792;2022-08-14T14:08:34;3.33;;;2.20;;
27893;SDS011;15240;50.812;4.792;2022-08-14T14:11:12;4.25;;;2.17;;
27893;SDS011;15240;50.812;4.792;2022-08-14T14:13:49;3.42;;;2.33;;
27893;SDS011;15240;50.812;4.792;2022-08-14T14:16:15;4.50;;;2.25;;
27893;SDS011;15240;50.812;4.792;2022-08-14T14:18:52;2.67;;;2.45;;
27893;SDS011;15240;50.812;4.792;2022-08-14T14:21:36;4.30;;;2.28;;
27893;SDS011;15240;50.812;4.792;2022-08-14T14:24:22;2.50;;;2.30;;
27893;SDS011;15240;50.812;4.792;2022-08-14T14:26:51;3.10;;;2.30;;
27893;SDS011;15240;50.812;4.792;2022-08-14T14:29:18;2.80;;;2.50;;
27893;SDS011;15240;50.812;4.792;2022-08-14T14:31:47;3.92;;;2.08;;
27893;SDS011;15240;50.812;4.792;2022-08-14T14:34:13;2.33;;;2.13;;
27893;SDS011;15240;50.812;4.792;2022-08-14T14:37:06;4.00;;;2.22;;
27893;SDS011;15240;50.812;4.792;2022-08-14T14:39:35;3.75;;;2.38;;
27893;SDS011;15240;50.812;4.792;2022-08-14T14:42:01;2.45;;;2.25;;
27893;SDS011;15240;50.812;4.792;2022-08-14T14:45:01;2.30;;;2.10;;
27893;SDS011;15240;50.812;4.792;2022-08-14T14:47:38;3.65;;;2.20;;
27893;SDS011;15240;50.812;4.792;2022-08-14T14:52:55;2.63;;;2.20;;
27893;SDS011;15240;50.812;4.792;2022-08-14T14:55:41;3.75;;;2.25;;
27893;SDS011;15240;50.812;4.792;2022-08-14T14:58:19;2.80;;;2.20;;
27893;SDS011;15240;50.812;4.792;2022-08-14T15:00:57;2.67;;;2.47;;
27893;SDS011;15240;50.812;4.792;2022-08-14T15:03:24;2.60;;;2.22;;
27893;SDS011;15240;50.812;4.792;2022-08-14T15:06:07;6.00;;;2.30;;
27893;SDS011;15240;50.812;4.792;2022-08-14T15:08:36;4.10;;;1.90;;
27893;SDS011;15240;50.812;4.792;2022-08-14T15:11:08;5.40;;;2.05;;
27893;SDS011;15240;50.812;4.792;2022-08-14T15:13:34;3.28;;;2.10;;
27893;SDS011;15240;50.812;4.792;2022-08-14T15:16:03;3.10;;;2.30;;
27893;SDS011;15240;50.812;4.792;2022-08-14T15:18:30;2.67;;;2.40;;
27893;SDS011;15240;50.812;4.792;2022-08-14T15:21:01;2.47;;;2.22;;
27893;SDS011;15240;50.812;4.792;2022-08-14T15:26:14;4.15;;;2.67;;
27893;SDS011;15240;50.812;4.792;2022-08-14T15:28:43;3.60;;;2.50;;
27893;SDS011;15240;50.812;4.792;2022-08-14T15:31:20;6.57;;;2.72;;
27893;SDS011;15240;50.812;4.792;2022-08-14T15:33:47;6.20;;;2.30;;
27893;SDS011;15240;50.812;4.792;2022-08-14T15:36:32;5.28;;;2.45;;
27893;SDS011;15240;50.812;4.792;2022-08-14T15:39:00;4.00;;;2.15;;
27893;SDS011;15240;50.812;4.792;2022-08-14T15:41:35;5.57;;;2.65;;
27893;SDS011;15240;50.812;4.792;2022-08-14T15:44:09;3.80;;;2.22;;
27893;SDS011;15240;50.812;4.792;2022-08-14T15:46:39;6.63;;;2.10;;
27893;SDS011;15240;50.812;4.792;2022-08-14T15:49:05;4.95;;;2.20;;
27893;SDS011;15240;50.812;4.792;2022-08-14T15:51:34;2.78;;;2.30;;
27893;SDS011;15240;50.812;4.792;2022-08-14T15:54:10;3.72;;;2.40;;
27893;SDS011;15240;50.812;4.792;2022-08-14T15:56:37;3.83;;;2.40;;